Time;durP1;ratioP1;P1;durP2;ratioP2;P2;SDS_P1;SDS_P2;PMS_P1;PMS_P2;Temp;Humidity;BMP_temperature;BMP_pressure;BME280_temperature;BME280_humidity;BME280_pressure;Samples;Min_cycle;Max_cycle;Signal;HPM_P1;HPM_P2
2021/05/13 00:01:08;;;;;;;;;20.75;19.75;;;;;21.82;53.88;97404.63;6254550;27;124729;-60
2021/05/13 00:04:10;;;;;;;;;20.00;20.00;;;;;21.82;53.98;97403.81;6250057;27;124864;-60
2021/05/13 00:07:13;;;;;;;;;21.00;19.00;;;;;21.76;54.26;97394.97;6245911;27;126414;-60
2021/05/13 00:10:20;;;;;;;;;22.00;21.00;;;;;21.79;53.98;97396.28;6249958;27;126379;-60
2021/05/13 00:13:23;;;;;;;;;21.60;20.00;;;;;21.79;54.12;97393.53;6253257;27;124689;-61
2021/05/13 00:16:29;;;;;;;;;20.60;19.60;;;;;21.58;54.61;97383.28;6254555;27;125683;-61
2021/05/13 00:19:33;;;;;;;;;19.40;17.00;;;;;21.73;54.58;97390.16;6246801;27;124019;-61
2021/05/13 00:22:36;;;;;;;;;19.50;19.00;;;;;21.78;54.36;97400.94;6250158;27;126467;-60
2021/05/13 00:25:40;;;;;;;;;21.40;21.00;;;;;21.78;54.34;97403.69;6249191;27;126073;-60
2021/05/13 00:28:43;;;;;;;;;21.80;20.00;;;;;21.89;54.06;97399.41;6262515;27;126156;-60
2021/05/13 00:31:46;;;;;;;;;20.20;19.00;;;;;21.83;54.14;97397.22;6247080;27;126331;-60
2021/05/13 00:34:49;;;;;;;;;19.75;19.00;;;;;21.94;54.01;97395.75;6250134;27;125111;-60
2021/05/13 00:37:52;;;;;;;;;23.20;20.40;;;;;21.88;54.09;97397.84;6239058;27;124106;-60
2021/05/13 00:40:55;;;;;;;;;20.75;19.75;;;;;21.92;54.20;97392.47;6248866;27;124738;-60
2021/05/13 00:43:58;;;;;;;;;20.20;19.00;;;;;21.97;53.65;97384.91;6257211;27;126088;-60
2021/05/13 00:47:02;;;;;;;;;20.60;18.80;;;;;21.98;54.11;97385.72;6258557;27;124854;-60
2021/05/13 00:50:06;;;;;;;;;22.00;19.50;;;;;22.02;53.44;97383.91;6253934;27;125035;-60
2021/05/13 00:53:11;;;;;;;;;20.25;19.25;;;;;22.07;53.21;97383.72;6261593;27;126022;-60
2021/05/13 00:56:14;;;;;;;;;21.40;19.00;;;;;22.06;53.42;97379.34;6260680;27;125793;-60
2021/05/13 00:59:19;;;;;;;;;20.00;19.25;;;;;22.08;53.36;97387.25;6259078;27;126030;-60
2021/05/13 01:02:22;;;;;;;;;19.00;17.50;;;;;22.06;53.35;97381.28;6256177;27;125647;-60
2021/05/13 01:05:27;;;;;;;;;19.50;18.50;;;;;22.01;53.66;97377.59;6258820;27;125348;-60
2021/05/13 01:08:30;;;;;;;;;23.00;22.00;;;;;21.95;53.86;97367.94;6251437;27;124619;-60
2021/05/13 01:11:32;;;;;;;;;23.00;22.00;;;;;21.88;54.15;97369.59;6258070;27;124464;-60
2021/05/13 01:14:41;;;;;;;;;22.40;21.00;;;;;21.91;54.01;97369.72;6240371;27;123751;-60
2021/05/13 01:17:54;;;;;;;;;20.00;20.00;;;;;21.87;54.13;97367.97;6254755;27;124358;-60
2021/05/13 01:20:57;;;;;;;;;20.00;19.40;;;;;21.85;53.85;97368.28;6261303;27;124781;-60
2021/05/13 01:24:01;;;;;;;;;22.40;21.40;;;;;21.86;53.82;97364.44;6252130;27;125182;-60
2021/05/13 01:27:04;;;;;;;;;17.40;17.40;;;;;21.95;53.29;97351.50;6256783;27;125195;-61
2021/05/13 01:30:07;;;;;;;;;20.80;20.00;;;;;21.96;53.26;97341.31;6249272;27;125007;-61
2021/05/13 01:33:12;;;;;;;;;21.00;19.80;;;;;22.04;52.90;97357.72;6250623;27;124875;-60
2021/05/13 01:36:15;;;;;;;;;21.50;20.00;;;;;22.09;52.31;97350.44;6249860;27;126442;-61
2021/05/13 01:39:19;;;;;;;;;24.00;21.60;;;;;22.11;52.37;97350.91;6251939;27;126455;-60
2021/05/13 01:42:22;;;;;;;;;23.00;20.80;;;;;22.12;51.82;97342.34;6248569;27;124800;-61
2021/05/13 01:45:24;;;;;;;;;18.75;17.75;;;;;22.12;51.84;97342.34;6238836;27;125851;-61
2021/05/13 01:48:28;;;;;;;;;23.80;21.20;;;;;22.07;51.20;97337.06;6250547;27;126005;-61
2021/05/13 01:51:31;;;;;;;;;22.00;21.00;;;;;22.12;50.87;97345.09;6240054;27;124090;-61
2021/05/13 01:54:35;;;;;;;;;23.00;21.00;;;;;22.11;50.29;97318.78;6241264;27;125922;-60
2021/05/13 01:57:37;;;;;;;;;20.40;18.00;;;;;22.02;49.82;97324.34;6243109;27;126218;-60
2021/05/13 02:00:43;;;;;;;;;21.00;20.00;;;;;22.01;49.19;97322.72;6243186;27;124413;-61
2021/05/13 02:03:46;;;;;;;;;19.00;18.00;;;;;21.99;48.91;97324.22;6240937;27;126641;-60
2021/05/13 02:06:49;;;;;;;;;18.00;18.00;;;;;21.95;48.69;97326.78;6239961;27;125853;-61
2021/05/13 02:09:53;;;;;;;;;17.00;17.00;;;;;21.86;48.78;97319.72;6243829;27;126130;-60
2021/05/13 02:12:57;;;;;;;;;16.00;15.40;;;;;21.75;48.63;97313.81;6246159;27;126361;-61
2021/05/13 02:16:00;;;;;;;;;14.50;14.00;;;;;21.72;47.00;97319.16;6256465;27;122780;-61
2021/05/13 02:19:04;;;;;;;;;14.00;13.00;;;;;21.65;46.21;97313.41;6254606;27;125005;-61
2021/05/13 02:22:06;;;;;;;;;13.40;11.60;;;;;21.70;45.15;97327.72;6250460;27;126110;-60
2021/05/13 02:25:12;;;;;;;;;13.00;12.00;;;;;21.66;44.52;97309.53;6257847;27;126776;-61
2021/05/13 02:28:15;;;;;;;;;11.40;11.00;;;;;21.68;43.96;97318.22;6260455;27;127107;-61
2021/05/13 02:31:17;;;;;;;;;12.50;11.00;;;;;21.69;43.75;97303.38;6247326;27;124897;-61
2021/05/13 02:34:23;;;;;;;;;11.40;11.00;;;;;21.55;43.80;97285.22;6249215;27;126723;-60
2021/05/13 02:37:26;;;;;;;;;11.40;11.00;;;;;21.62;43.49;97301.16;6253441;27;124079;-61
2021/05/13 02:40:30;;;;;;;;;11.00;11.00;;;;;21.66;43.45;97301.28;6248807;27;127008;-60
2021/05/13 02:43:35;;;;;;;;;13.00;13.00;;;;;21.46;43.67;97273.50;6253337;27;126251;-60
2021/05/13 02:46:37;;;;;;;;;11.00;10.00;;;;;21.46;44.07;97283.66;6247783;27;125240;-61
2021/05/13 02:49:40;;;;;;;;;12.50;12.50;;;;;21.47;43.97;97294.31;6246444;27;126055;-60
2021/05/13 02:52:43;;;;;;;;;12.00;11.00;;;;;21.59;43.38;97297.16;6247638;27;125980;-61
2021/05/13 02:55:46;;;;;;;;;11.00;10.00;;;;;21.60;43.38;97298.75;6253910;27;124011;-60
2021/05/13 02:58:51;;;;;;;;;11.60;10.60;;;;;21.59;43.22;97299.91;6253327;27;126212;-61
2021/05/13 03:01:53;;;;;;;;;12.00;10.00;;;;;21.57;43.75;97298.59;6245254;27;124902;-60
2021/05/13 03:04:56;;;;;;;;;11.80;10.80;;;;;21.65;43.63;97292.25;6237271;27;126216;-61
2021/05/13 03:08:01;;;;;;;;;13.00;12.00;;;;;21.54;43.23;97299.28;6239571;27;124694;-61
2021/05/13 03:11:05;;;;;;;;;13.00;12.80;;;;;21.52;42.83;97299.59;6238371;27;126003;-60
2021/05/13 03:14:09;;;;;;;;;14.60;11.60;;;;;21.13;42.56;97264.28;6246997;27;126031;-60
2021/05/13 03:17:12;;;;;;;;;12.00;11.40;;;;;21.27;42.44;97288.75;6239641;27;123814;-60
2021/05/13 03:20:18;;;;;;;;;13.00;11.00;;;;;21.26;42.98;97282.47;6240505;27;125857;-60
2021/05/13 03:23:26;;;;;;;;;14.40;13.00;;;;;21.33;42.90;97291.00;6245331;27;126211;-61
2021/05/13 03:26:38;;;;;;;;;14.00;12.00;;;;;21.39;42.49;97291.63;6255110;27;125981;-61
2021/05/13 03:29:41;;;;;;;;;11.00;9.40;;;;;21.38;41.93;97279.84;6254570;27;126237;-60
2021/05/13 03:32:44;;;;;;;;;13.00;12.00;;;;;21.43;42.13;97271.44;6250862;27;126299;-60
2021/05/13 03:35:47;;;;;;;;;14.33;13.33;;;;;21.36;41.63;97262.09;6236481;27;126094;-61
2021/05/13 03:38:49;;;;;;;;;14.40;13.00;;;;;21.50;41.55;97279.16;6235701;27;124871;-60
2021/05/13 03:41:53;;;;;;;;;14.00;12.50;;;;;21.53;41.40;97271.06;6238568;27;125235;-61
2021/05/13 03:44:56;;;;;;;;;12.00;11.00;;;;;21.52;41.35;97280.41;6234826;27;123696;-60
2021/05/13 03:48:02;;;;;;;;;12.00;11.60;;;;;21.53;41.25;97273.00;6241710;27;124930;-60
2021/05/13 03:51:05;;;;;;;;;11.40;11.00;;;;;21.50;41.77;97273.66;6236897;27;124758;-60
2021/05/13 03:54:08;;;;;;;;;12.80;11.80;;;;;21.54;41.44;97271.84;6240860;27;124909;-60
2021/05/13 03:57:11;;;;;;;;;13.00;11.60;;;;;21.53;41.26;97267.50;6246600;27;124950;-60
2021/05/13 04:00:17;;;;;;;;;11.00;11.00;;;;;21.55;41.20;97276.22;6235258;27;124737;-60
2021/05/13 04:03:21;;;;;;;;;12.40;12.40;;;;;21.56;41.31;97264.09;6249320;27;126737;-60
2021/05/13 04:06:23;;;;;;;;;13.00;12.00;;;;;21.46;40.81;97265.28;6253105;27;128731;-62
2021/05/13 04:09:26;;;;;;;;;12.00;11.40;;;;;21.47;40.93;97266.88;6254748;27;125637;-60
2021/05/13 04:12:30;;;;;;;;;14.00;12.00;;;;;21.43;41.42;97260.47;6244349;27;125034;-60
2021/05/13 04:15:33;;;;;;;;;16.00;16.00;;;;;21.47;41.07;97257.84;6245111;27;125011;-60
2021/05/13 04:18:35;;;;;;;;;16.00;15.00;;;;;21.48;41.01;97262.22;6247507;27;126267;-60
2021/05/13 04:21:38;;;;;;;;;16.00;15.00;;;;;21.51;40.79;97256.06;6247620;27;127068;-61
2021/05/13 04:24:42;;;;;;;;;15.00;13.00;;;;;21.45;40.56;97260.91;6253469;27;124968;-62
2021/05/13 04:27:47;;;;;;;;;15.80;14.00;;;;;21.46;40.08;97265.28;6254789;27;124751;-62
2021/05/13 04:30:50;;;;;;;;;14.80;13.00;;;;;21.37;40.39;97264.53;6254590;27;126824;-62
2021/05/13 04:33:53;;;;;;;;;14.00;12.40;;;;;21.19;40.34;97260.28;6241409;27;126173;-60
2021/05/13 04:36:56;;;;;;;;;14.00;13.67;;;;;21.13;39.71;97258.81;6240022;27;126155;-60
2021/05/13 04:39:59;;;;;;;;;9.50;9.25;;;;;21.16;39.58;97260.91;6238790;27;124600;-63
2021/05/13 04:43:03;;;;;;;;;9.20;9.20;;;;;21.17;39.66;97263.34;6236636;27;125096;-61
2021/05/13 04:46:07;;;;;;;;;9.40;9.00;;;;;21.03;39.64;97245.47;6263404;27;126777;-62
2021/05/13 04:49:19;;;;;;;;;9.80;9.00;;;;;21.10;39.31;97248.53;6246040;27;124609;-62
2021/05/13 04:52:24;;;;;;;;;10.50;10.00;;;;;21.24;39.19;97246.38;6243383;27;124476;-62
2021/05/13 04:55:26;;;;;;;;;13.00;11.00;;;;;21.17;39.01;97244.16;6255476;27;124119;-60
2021/05/13 04:58:30;;;;;;;;;15.40;14.40;;;;;21.19;39.39;97246.56;6255668;27;125882;-60
2021/05/13 05:01:33;;;;;;;;;13.00;12.60;;;;;21.27;39.25;97242.97;6256899;27;125666;-60
2021/05/13 05:04:36;;;;;;;;;13.00;12.40;;;;;21.39;39.39;97242.28;6256635;27;126550;-60
2021/05/13 05:07:39;;;;;;;;;12.40;11.40;;;;;21.59;39.08;97234.09;6258741;27;125121;-60
2021/05/13 05:10:41;;;;;;;;;14.00;13.00;;;;;21.63;38.51;97225.19;6257997;27;124132;-60
2021/05/13 05:13:45;;;;;;;;;12.00;12.00;;;;;21.76;38.11;97244.13;6261671;27;126346;-60
2021/05/13 05:16:48;;;;;;;;;11.00;10.00;;;;;21.73;38.51;97247.53;6262356;27;125930;-60
2021/05/13 05:19:51;;;;;;;;;12.00;11.00;;;;;21.78;38.14;97238.31;6252250;27;125252;-60
2021/05/13 05:22:54;;;;;;;;;12.00;10.00;;;;;21.76;38.10;97227.66;6257155;27;124577;-60
2021/05/13 05:25:57;;;;;;;;;10.00;9.00;;;;;22.01;37.69;97242.34;6263447;27;126072;-60
2021/05/13 05:29:01;;;;;;;;;10.00;10.00;;;;;22.20;37.74;97242.66;6259290;27;124997;-60
2021/05/13 05:32:04;;;;;;;;;11.00;10.00;;;;;22.39;37.67;97234.72;6261552;27;123702;-60
2021/05/13 05:35:07;;;;;;;;;12.00;10.00;;;;;22.47;36.71;97235.78;6258054;27;126675;-61
2021/05/13 05:38:11;;;;;;;;;10.60;9.00;;;;;22.51;37.35;97233.16;6254357;27;126676;-62
2021/05/13 05:41:14;;;;;;;;;12.40;12.00;;;;;22.62;36.56;97226.09;6260626;27;124049;-60
2021/05/13 05:44:17;;;;;;;;;11.00;10.00;;;;;22.69;36.38;97229.88;6242536;27;126326;-60
2021/05/13 05:47:20;;;;;;;;;10.00;10.00;;;;;22.71;36.34;97222.16;6241745;27;123709;-61
2021/05/13 05:50:23;;;;;;;;;11.60;10.60;;;;;22.76;36.91;97229.38;6241151;27;126256;-60
2021/05/13 05:53:25;;;;;;;;;10.75;10.00;;;;;22.82;36.57;97226.03;6256523;27;129632;-60
2021/05/13 05:56:28;;;;;;;;;11.00;11.00;;;;;22.80;36.15;97222.84;6257652;27;125328;-60
2021/05/13 05:59:32;;;;;;;;;12.00;10.67;;;;;22.93;36.36;97231.09;6257955;27;126105;-60
2021/05/13 06:02:35;;;;;;;;;11.00;10.00;;;;;22.70;36.11;97226.03;6242515;27;123001;-60
2021/05/13 06:05:38;;;;;;;;;10.80;10.40;;;;;22.78;36.36;97233.38;6241768;27;125051;-62
2021/05/13 06:08:41;;;;;;;;;11.00;10.00;;;;;22.83;36.75;97235.88;6246819;27;126143;-60
2021/05/13 06:11:43;;;;;;;;;11.00;11.00;;;;;22.68;36.72;97230.22;6242103;27;123834;-61
2021/05/13 06:14:47;;;;;;;;;11.40;11.00;;;;;22.74;36.90;97232.44;6260152;27;126188;-61
2021/05/13 06:17:50;;;;;;;;;11.00;10.00;;;;;22.95;37.65;97237.88;6261363;27;127277;-61
2021/05/13 06:20:52;;;;;;;;;10.80;9.80;;;;;23.16;37.37;97238.56;6241482;27;126530;-61
2021/05/13 06:23:57;;;;;;;;;11.75;11.75;;;;;23.27;36.13;97242.44;6241467;27;125372;-61
2021/05/13 06:27:01;;;;;;;;;11.00;10.00;;;;;23.42;37.10;97232.69;6261411;27;125196;-61
2021/05/13 06:30:06;;;;;;;;;12.00;11.00;;;;;23.60;35.90;97230.56;6260692;27;125930;-61
2021/05/13 06:33:10;;;;;;;;;12.00;11.00;;;;;23.83;36.60;97230.84;6256607;27;126601;-61
2021/05/13 06:36:15;;;;;;;;;14.00;12.20;;;;;23.89;34.88;97227.50;6247461;27;125823;-62
2021/05/13 06:39:18;;;;;;;;;11.20;10.00;;;;;23.92;35.18;97235.06;6248479;27;126159;-61
2021/05/13 06:42:20;;;;;;;;;12.00;12.00;;;;;23.99;35.86;97238.03;6245532;27;124871;-61
2021/05/13 06:45:24;;;;;;;;;11.00;10.00;;;;;24.30;35.75;97234.59;6248220;27;126186;-60
2021/05/13 06:48:27;;;;;;;;;12.00;12.00;;;;;24.57;35.89;97228.28;6248051;27;125894;-60
2021/05/13 06:51:30;;;;;;;;;15.00;13.00;;;;;24.78;34.17;97227.22;6205445;28;123834;-62
2021/05/13 06:54:33;;;;;;;;;13.40;12.40;;;;;24.85;35.28;97208.13;6190830;28;123778;-63
2021/05/13 06:57:35;;;;;;;;;15.00;14.00;;;;;25.08;33.88;97227.63;6234549;28;126025;-60
2021/05/13 07:00:39;;;;;;;;;14.40;13.00;;;;;25.22;34.13;97230.72;6235550;27;126254;-62
2021/05/13 07:03:48;;;;;;;;;17.00;15.00;;;;;25.09;33.94;97218.22;6201725;28;126089;-60
2021/05/13 07:06:51;;;;;;;;;15.20;15.20;;;;;25.22;33.64;97225.22;6216994;28;126329;-62
2021/05/13 07:09:54;;;;;;;;;16.40;14.40;;;;;25.41;33.93;97214.28;6200994;28;124168;-62
2021/05/13 07:12:57;;;;;;;;;15.00;14.00;;;;;25.77;34.23;97202.91;6234599;28;126399;-59
2021/05/13 07:16:07;;;;;;;;;14.60;12.20;;;;;26.23;34.36;97205.84;6232853;28;127673;-60
2021/05/13 07:19:10;;;;;;;;;15.75;13.00;;;;;26.54;32.42;97208.41;6231664;28;125995;-60
2021/05/13 07:22:12;;;;;;;;;14.00;13.00;;;;;26.49;31.75;97191.34;6200427;28;124926;-60
2021/05/13 07:25:15;;;;;;;;;15.00;13.00;;;;;26.61;32.30;97199.47;6233418;28;125714;-60
2021/05/13 07:28:18;;;;;;;;;15.60;15.20;;;;;26.85;31.60;97201.88;6231922;28;124830;-60
2021/05/13 07:31:21;;;;;;;;;15.80;14.80;;;;;26.82;31.14;97197.09;6234270;28;126255;-60
2021/05/13 07:34:24;;;;;;;;;15.60;14.60;;;;;26.65;31.90;97153.34;6233459;28;124964;-60
2021/05/13 07:37:27;;;;;;;;;15.60;15.00;;;;;27.31;32.17;97199.13;6230338;28;125817;-60
2021/05/13 07:40:31;;;;;;;;;16.00;14.60;;;;;27.81;31.06;97192.34;6198726;28;125299;-61
2021/05/13 07:43:36;;;;;;;;;15.00;15.00;;;;;28.13;30.79;97174.19;6232245;28;125644;-60
2021/05/13 07:46:41;;;;;;;;;16.00;14.00;;;;;28.39;29.90;97192.72;6234342;28;125608;-60
2021/05/13 07:49:46;;;;;;;;;16.00;15.00;;;;;28.47;29.99;97188.84;6239793;27;124825;-61
2021/05/13 07:52:50;;;;;;;;;16.60;15.60;;;;;28.59;30.31;97191.31;6242767;27;125070;-61
2021/05/13 07:55:52;;;;;;;;;16.60;15.40;;;;;28.28;30.55;97172.41;6256708;27;125072;-61
2021/05/13 07:58:55;;;;;;;;;16.33;15.33;;;;;28.13;30.40;97176.97;6242353;27;124666;-61
2021/05/13 08:01:59;;;;;;;;;19.00;18.00;;;;;27.96;31.06;97163.66;6234527;27;126191;-61
2021/05/13 08:05:01;;;;;;;;;19.50;17.25;;;;;28.08;31.02;97176.47;6223578;27;125512;-61
2021/05/13 08:08:05;;;;;;;;;19.40;18.00;;;;;28.09;30.80;97178.88;6231275;28;127125;-61
2021/05/13 08:11:08;;;;;;;;;21.00;17.00;;;;;28.25;30.52;97168.38;6243652;27;125621;-61
2021/05/13 08:14:11;;;;;;;;;18.80;17.80;;;;;28.56;32.21;97164.38;6244969;27;126793;-61
2021/05/13 08:17:14;;;;;;;;;20.00;17.00;;;;;28.93;31.07;97171.88;6251949;27;125011;-61
2021/05/13 08:20:18;;;;;;;;;20.40;19.00;;;;;28.84;30.75;97177.72;6248300;27;124810;-60
2021/05/13 08:23:21;;;;;;;;;19.00;18.00;;;;;29.03;30.02;97168.41;6241701;27;126040;-61
2021/05/13 08:26:24;;;;;;;;;21.00;19.50;;;;;29.36;30.79;97165.50;6239116;27;126252;-60
2021/05/13 08:29:28;;;;;;;;;24.20;21.80;;;;;29.53;29.22;97167.59;6246641;27;124780;-60
2021/05/13 08:32:31;;;;;;;;;22.00;20.00;;;;;29.58;29.47;97163.66;6240752;27;126168;-61
2021/05/13 08:35:34;;;;;;;;;23.00;21.00;;;;;29.66;29.22;97168.84;6249172;27;124800;-61
2021/05/13 08:38:37;;;;;;;;;24.00;20.40;;;;;29.88;30.00;97166.19;6229107;27;125364;-61
2021/05/13 08:41:41;;;;;;;;;21.00;20.50;;;;;29.91;30.18;97157.91;6214824;28;125943;-60
2021/05/13 08:44:45;;;;;;;;;24.00;22.00;;;;;30.20;29.12;97163.59;6231977;28;124933;-62
2021/05/13 08:47:48;;;;;;;;;22.40;20.40;;;;;29.81;29.28;97144.72;6218313;28;126529;-60
2021/05/13 08:50:51;;;;;;;;;27.00;22.40;;;;;29.53;29.20;97155.69;6221629;27;125095;-60
2021/05/13 08:53:55;;;;;;;;;23.40;23.40;;;;;29.49;30.49;97157.66;6263125;27;125306;-62
2021/05/13 08:56:58;;;;;;;;;25.75;23.00;;;;;29.52;30.31;97154.09;6261512;27;126430;-60
2021/05/13 09:00:01;;;;;;;;;24.75;22.75;;;;;29.67;30.08;97145.47;6261746;27;126511;-60
2021/05/13 09:03:05;;;;;;;;;24.40;20.60;;;;;29.95;29.57;97133.72;6222528;27;124834;-61
2021/05/13 09:06:09;;;;;;;;;21.00;19.60;;;;;30.57;28.98;97152.19;6262662;27;125949;-60
2021/05/13 09:09:13;;;;;;;;;22.20;20.00;;;;;31.09;28.84;97170.94;6262006;27;126496;-61
2021/05/13 09:12:20;;;;;;;;;23.00;21.00;;;;;31.48;28.30;97153.38;6243688;27;122667;-60
2021/05/13 09:15:24;;;;;;;;;20.00;18.80;;;;;31.94;28.14;97144.94;6262062;27;126375;-61
2021/05/13 09:18:32;;;;;;;;;24.50;22.50;;;;;32.24;26.35;97151.63;6261447;27;126077;-61
2021/05/13 09:21:50;;;;;;;;;23.00;20.00;;;;;32.67;26.80;97143.81;6219261;28;123108;-61
2021/05/13 09:24:56;;;;;;;;;25.00;22.80;;;;;32.80;25.79;97146.09;6237958;27;124760;-61
2021/05/13 09:27:58;;;;;;;;;23.20;20.60;;;;;32.17;25.92;97140.47;6260493;27;125049;-61
2021/05/13 09:31:01;;;;;;;;;24.00;21.80;;;;;31.80;26.79;97131.88;6260439;27;126205;-61
2021/05/13 09:34:13;;;;;;;;;25.60;21.80;;;;;31.82;27.06;97132.25;6250268;27;123983;-61
2021/05/13 09:37:16;;;;;;;;;22.00;20.00;;;;;31.89;27.56;97128.63;6261896;27;126954;-61
2021/05/13 09:40:22;;;;;;;;;22.60;21.60;;;;;31.89;26.73;97129.44;6261035;27;125093;-61
2021/05/13 09:43:29;;;;;;;;;24.00;21.00;;;;;31.90;26.72;97128.25;6227108;27;124717;-61
2021/05/13 09:46:34;;;;;;;;;24.33;22.00;;;;;31.68;27.29;97127.50;6260908;27;125912;-62
2021/05/13 09:49:53;;;;;;;;;26.00;22.60;;;;;31.64;27.86;97112.81;6260764;27;125028;-61
2021/05/13 09:52:58;;;;;;;;;26.75;23.75;;;;;31.46;26.83;97114.81;6253899;27;124029;-61
2021/05/13 09:56:21;;;;;;;;;26.50;23.50;;;;;31.04;27.54;97109.31;6260665;27;125908;-61
2021/05/13 09:59:26;;;;;;;;;24.00;22.00;;;;;31.03;28.48;97113.31;6257134;27;124642;-61
2021/05/13 10:02:29;;;;;;;;;27.40;24.00;;;;;30.97;28.12;97107.31;6260330;27;125910;-61
2021/05/13 10:05:34;;;;;;;;;26.80;23.40;;;;;30.84;27.52;97106.91;6244145;27;124836;-61
2021/05/13 10:08:37;;;;;;;;;24.00;23.00;;;;;30.74;28.34;97102.13;6248221;27;124873;-60
2021/05/13 10:11:42;;;;;;;;;26.20;24.00;;;;;30.81;29.10;97096.56;6260350;27;125739;-60
2021/05/13 10:14:45;;;;;;;;;27.20;23.80;;;;;31.16;28.61;97097.78;6242586;27;126393;-60
2021/05/13 10:17:51;;;;;;;;;21.00;20.00;;;;;31.25;29.26;97089.81;6261146;27;126170;-60
2021/05/13 10:20:58;;;;;;;;;22.60;20.00;;;;;31.63;27.97;97090.91;6243671;27;123076;-61
2021/05/13 10:24:02;;;;;;;;;26.00;23.50;;;;;31.53;27.88;97084.16;6258369;27;126017;-62
2021/05/13 10:27:15;;;;;;;;;28.50;24.75;;;;;31.41;27.46;97092.97;6257997;27;124810;-60
2021/05/13 10:30:22;;;;;;;;;24.75;23.00;;;;;30.98;28.28;97089.44;6256679;27;126975;-62
2021/05/13 10:33:25;;;;;;;;;22.60;21.00;;;;;31.06;29.31;97084.66;6261766;27;125938;-61
2021/05/13 10:36:29;;;;;;;;;21.00;19.00;;;;;31.06;28.95;97084.66;6261678;27;126327;-61
2021/05/13 10:39:32;;;;;;;;;25.00;21.40;;;;;30.92;29.05;97075.13;6245302;27;125050;-62
2021/05/13 10:42:37;;;;;;;;;28.00;24.00;;;;;30.39;29.26;97063.16;6245965;27;126066;-62
2021/05/13 10:45:44;;;;;;;;;22.75;22.25;;;;;30.40;29.34;97071.09;6259564;27;124516;-62
2021/05/13 10:48:48;;;;;;;;;27.20;23.60;;;;;30.42;29.52;97073.47;6259790;27;125378;-62
2021/05/13 10:51:53;;;;;;;;;26.25;23.75;;;;;30.10;30.17;97071.44;6260736;27;124950;-63
2021/05/13 10:54:56;;;;;;;;;24.80;22.40;;;;;29.57;31.47;97067.66;6260190;27;123858;-62
2021/05/13 10:57:58;;;;;;;;;27.00;24.00;;;;;29.27;31.57;97063.09;6261171;27;126439;-60
2021/05/13 11:01:23;;;;;;;;;28.60;24.60;;;;;29.04;31.53;97059.00;6260863;27;125503;-62
2021/05/13 11:04:36;;;;;;;;;23.60;22.40;;;;;28.98;32.48;97066.13;6241561;27;123468;-60
2021/05/13 11:07:39;;;;;;;;;23.00;22.00;;;;;29.11;32.34;97059.06;6238961;27;125861;-60
2021/05/13 11:11:01;;;;;;;;;24.25;23.25;;;;;29.03;32.19;97068.53;6238720;27;123667;-60
2021/05/13 11:14:11;;;;;;;;;25.00;22.00;;;;;28.65;32.92;97059.50;6259020;27;126204;-61
2021/05/13 11:17:14;;;;;;;;;23.00;23.00;;;;;28.32;33.86;97038.22;6260192;27;126496;-61
2021/05/13 11:20:22;;;;;;;;;25.00;23.00;;;;;28.54;33.71;97055.81;6250234;27;125338;-60
2021/05/13 11:23:28;;;;;;;;;24.40;23.00;;;;;28.68;33.05;97046.84;6260745;27;125636;-61
2021/05/13 11:26:31;;;;;;;;;26.00;22.40;;;;;28.77;32.96;97050.91;6251879;27;125796;-61
2021/05/13 11:29:49;;;;;;;;;27.00;24.00;;;;;28.88;32.80;97051.00;6259652;27;123762;-60
2021/05/13 11:32:52;;;;;;;;;25.67;23.00;;;;;28.59;32.36;97049.16;6259540;27;125807;-61
2021/05/13 11:36:03;;;;;;;;;25.00;22.00;;;;;28.57;32.92;97041.22;6260633;27;125058;-62
2021/05/13 11:39:11;;;;;;;;;25.60;20.80;;;;;28.75;32.80;97041.38;6259513;27;126436;-61
2021/05/13 11:42:20;;;;;;;;;22.20;20.20;;;;;28.88;32.72;97048.22;6250615;27;125972;-61
2021/05/13 11:45:24;;;;;;;;;25.75;22.00;;;;;28.61;32.79;97014.31;6256165;27;125810;-61
2021/05/13 11:48:36;;;;;;;;;21.00;20.00;;;;;28.78;32.40;97051.72;6239768;27;126305;-61
2021/05/13 11:51:38;;;;;;;;;25.00;24.00;;;;;28.87;32.74;97059.69;6219273;28;124071;-61
2021/05/13 11:54:42;;;;;;;;;24.50;22.50;;;;;28.62;32.37;97007.59;6233566;28;124683;-61
2021/05/13 11:57:48;;;;;;;;;20.00;19.75;;;;;28.89;31.96;97060.09;6212879;28;123845;-61
2021/05/13 12:00:51;;;;;;;;;23.00;21.00;;;;;28.81;32.43;97054.50;6232395;28;126023;-60
2021/05/13 12:04:20;;;;;;;;;24.40;23.00;;;;;28.39;32.60;97052.13;6216005;28;125089;-60
2021/05/13 12:07:30;;;;;;;;;26.75;23.50;;;;;28.35;33.15;97043.00;6206107;28;125811;-61
2021/05/13 12:10:33;;;;;;;;;24.80;21.40;;;;;28.36;33.25;97038.25;6233730;28;126528;-61
2021/05/13 12:13:36;;;;;;;;;27.00;21.00;;;;;28.21;33.38;97040.09;6233737;28;124920;-61
2021/05/13 12:16:42;;;;;;;;;20.60;19.60;;;;;28.30;33.96;97035.03;6222985;28;126887;-61
2021/05/13 12:19:45;;;;;;;;;23.40;22.40;;;;;28.55;33.35;97028.91;6204980;28;125961;-61
2021/05/13 12:22:48;;;;;;;;;23.40;21.00;;;;;28.94;32.46;97031.97;6206725;28;125257;-61
2021/05/13 12:25:51;;;;;;;;;21.75;20.00;;;;;29.14;31.91;97028.56;6223921;28;125262;-61
2021/05/13 12:29:04;;;;;;;;;24.60;22.00;;;;;28.91;31.85;97030.00;6216152;28;123216;-61
2021/05/13 12:32:07;;;;;;;;;26.00;24.00;;;;;28.51;32.37;97034.44;6230342;28;126032;-61
2021/05/13 12:35:29;;;;;;;;;24.00;21.60;;;;;28.21;33.43;97039.31;6230008;28;124824;-61
2021/05/13 12:38:32;;;;;;;;;23.00;22.67;;;;;27.98;34.10;97036.69;6232975;28;124821;-60
2021/05/13 12:41:35;;;;;;;;;26.60;23.80;;;;;27.75;33.95;97038.81;6233227;28;126149;-61
2021/05/13 12:44:38;;;;;;;;;25.00;23.00;;;;;27.47;35.59;97028.94;6231614;28;126213;-61
2021/05/13 12:47:41;;;;;;;;;22.40;22.00;;;;;27.28;36.27;97029.09;6232602;28;125421;-61
2021/05/13 12:50:55;;;;;;;;;21.00;20.00;;;;;26.81;37.47;97026.84;6247000;27;125125;-61
2021/05/13 12:53:58;;;;;;;;;24.00;22.00;;;;;26.60;37.45;97037.56;6234911;27;124421;-61
2021/05/13 12:57:13;;;;;;;;;21.20;20.20;;;;;26.48;37.74;97033.06;6258281;27;125970;-61
2021/05/13 13:00:16;;;;;;;;;21.67;19.00;;;;;26.18;38.52;97034.88;6240520;27;124735;-61
2021/05/13 13:03:29;;;;;;;;;22.80;21.40;;;;;26.26;38.48;97037.41;6257210;27;126841;-61
2021/05/13 13:06:32;;;;;;;;;23.25;21.25;;;;;26.17;38.37;97027.75;6240207;27;126284;-61
2021/05/13 13:09:36;;;;;;;;;22.40;19.00;;;;;26.02;38.88;97034.19;6257823;27;123537;-61
2021/05/13 13:12:40;;;;;;;;;23.00;21.00;;;;;25.96;39.10;97038.41;6258351;27;126016;-61
2021/05/13 13:15:46;;;;;;;;;22.67;20.67;;;;;25.94;39.37;97033.28;6258465;27;126007;-61
2021/05/13 13:18:49;;;;;;;;;22.00;20.60;;;;;25.95;39.15;97047.88;6234993;27;124584;-61
2021/05/13 13:22:00;;;;;;;;;22.00;21.50;;;;;25.92;38.90;97051.34;6226474;27;126100;-60
2021/05/13 13:25:05;;;;;;;;;24.60;22.60;;;;;25.90;39.42;97048.16;6239528;27;123826;-61
2021/05/13 13:28:09;;;;;;;;;22.00;21.00;;;;;25.76;39.38;97037.63;6257123;27;124138;-61
2021/05/13 13:31:14;;;;;;;;;22.60;21.20;;;;;25.90;39.57;97050.94;6253030;27;126126;-60
2021/05/13 13:34:17;;;;;;;;;23.00;20.00;;;;;25.91;39.05;97046.97;6251625;27;126003;-61
2021/05/13 13:37:20;;;;;;;;;25.80;23.80;;;;;25.92;39.50;97046.63;6259171;27;124941;-61
2021/05/13 13:40:23;;;;;;;;;23.80;23.40;;;;;25.99;39.59;97059.78;6261653;27;125823;-60
2021/05/13 13:43:34;;;;;;;;;26.00;24.00;;;;;25.86;41.21;97062.69;6227642;27;125013;-61
2021/05/13 13:46:40;;;;;;;;;24.80;23.40;;;;;25.67;42.09;97067.44;6259401;27;124871;-60
2021/05/13 13:49:42;;;;;;;;;24.00;22.50;;;;;25.32;42.61;97053.66;6261007;27;126005;-61
2021/05/13 13:52:45;;;;;;;;;21.40;21.00;;;;;25.10;42.60;97046.09;6261405;27;125080;-61
2021/05/13 13:55:49;;;;;;;;;19.00;18.00;;;;;24.91;41.35;97050.44;6261748;27;126469;-61
2021/05/13 13:58:53;;;;;;;;;17.00;17.00;;;;;24.93;41.51;97036.28;6261428;27;126067;-61